createdAt,value
2019-05-17T00:00:47.485Z,8.10
2019-05-17T00:03:18.990Z,7.83
2019-05-17T00:05:48.647Z,8.80
2019-05-17T00:08:30.979Z,8.23
2019-05-17T00:10:49.424Z,8.47
2019-05-17T00:13:18.909Z,7.77
2019-05-17T00:15:48.549Z,8.00
2019-05-17T00:18:18.113Z,7.93
2019-05-17T00:20:47.741Z,7.43
2019-05-17T00:23:17.497Z,7.00
2019-05-17T00:25:48.535Z,7.70
2019-05-17T00:28:18.096Z,7.77
2019-05-17T00:30:47.670Z,8.43
2019-05-17T00:33:17.186Z,7.83
2019-05-17T00:35:47.035Z,8.07
2019-05-17T00:38:17.023Z,7.80
2019-05-17T00:40:47.212Z,7.03
2019-05-17T00:43:17.136Z,7.43
2019-05-17T00:45:46.952Z,7.77
2019-05-17T00:48:17.116Z,7.40
2019-05-17T00:50:53.434Z,8.10
2019-05-17T00:53:18.217Z,8.13
2019-05-17T00:55:47.705Z,7.07
2019-05-17T00:58:17.549Z,6.60
2019-05-17T01:00:47.947Z,7.73
2019-05-17T01:03:17.638Z,7.70
2019-05-17T01:05:48.118Z,8.73
2019-05-17T01:08:17.705Z,8.57
2019-05-17T01:10:47.529Z,8.47
2019-05-17T01:13:17.502Z,7.83
2019-05-17T01:15:47.511Z,8.00
2019-05-17T01:18:18.214Z,8.67
2019-05-17T01:20:47.784Z,8.63
2019-05-17T01:23:18.556Z,8.33
2019-05-17T01:25:48.226Z,8.77
2019-05-17T01:28:17.778Z,8.53
2019-05-17T01:30:47.327Z,8.20
2019-05-17T01:33:17.273Z,8.80
2019-05-17T01:35:47.907Z,8.43
2019-05-17T01:38:17.864Z,8.93
2019-05-17T01:40:47.712Z,8.20
2019-05-17T01:43:17.210Z,8.27
2019-05-17T01:45:47.999Z,9.23
2019-05-17T01:48:17.819Z,9.57
2019-05-17T01:50:47.456Z,8.97
2019-05-17T01:53:16.889Z,8.83
2019-05-17T01:55:46.737Z,9.50
2019-05-17T01:58:16.494Z,9.03
2019-05-17T02:00:46.511Z,8.90
2019-05-17T02:03:17.330Z,9.40
2019-05-17T02:05:47.325Z,8.67
2019-05-17T02:08:17.474Z,9.70
2019-05-17T02:10:47.038Z,8.70
2019-05-17T02:13:16.621Z,8.70
2019-05-17T02:15:47.032Z,7.17
2019-05-17T02:18:17.349Z,8.47
2019-05-17T02:20:47.002Z,8.40
2019-05-17T02:23:17.409Z,9.07
2019-05-17T02:25:48.059Z,9.63
2019-05-17T02:28:17.624Z,8.67
2019-05-17T02:30:47.225Z,8.20
2019-05-17T02:33:17.093Z,8.23
2019-05-17T02:35:46.607Z,8.70
2019-05-17T02:38:16.138Z,8.70
2019-05-17T02:40:45.637Z,9.10
2019-05-17T02:43:15.209Z,8.13
2019-05-17T02:45:44.848Z,7.77
2019-05-17T02:48:14.431Z,8.60
2019-05-17T02:50:48.165Z,8.83
2019-05-17T02:53:15.847Z,9.23
2019-05-17T02:55:45.449Z,8.73
2019-05-17T02:58:15.166Z,8.67
2019-05-17T03:00:45.936Z,9.57
2019-05-17T03:03:15.448Z,8.77
2019-05-17T03:05:44.868Z,8.73
2019-05-17T03:08:14.564Z,9.73
2019-05-17T03:10:44.195Z,8.47
2019-05-17T03:13:17.642Z,8.53
2019-05-17T03:15:45.131Z,8.47
2019-05-17T03:18:14.764Z,8.40
2019-05-17T03:20:44.196Z,9.17
2019-05-17T03:23:13.755Z,8.63
2019-05-17T03:25:43.945Z,7.23
2019-05-17T03:28:14.988Z,9.23
2019-05-17T03:30:47.031Z,8.60
2019-05-17T03:33:17.072Z,9.23
2019-05-17T03:35:47.497Z,8.40
2019-05-17T03:38:17.026Z,8.47
2019-05-17T03:41:07.216Z,8.63
2019-05-17T03:43:17.876Z,9.07
2019-05-17T03:45:47.455Z,9.03
2019-05-17T03:48:17.008Z,9.13
2019-05-17T03:50:46.584Z,9.17
2019-05-17T03:53:16.148Z,9.03
2019-05-17T03:55:45.720Z,9.50
2019-05-17T03:58:15.378Z,9.83
2019-05-17T04:00:45.105Z,9.87
2019-05-17T04:03:14.736Z,10.30
2019-05-17T04:05:44.174Z,10.37
2019-05-17T04:08:14.067Z,9.80
2019-05-17T04:10:43.765Z,8.67
2019-05-17T04:13:13.336Z,9.23
2019-05-17T04:15:43.487Z,10.00
2019-05-17T04:18:13.381Z,8.27
2019-05-17T04:20:43.473Z,8.87
2019-05-17T04:23:13.362Z,9.63
2019-05-17T04:25:43.785Z,9.47
2019-05-17T04:28:14.012Z,9.33
2019-05-17T04:30:43.743Z,10.97
2019-05-17T04:33:13.287Z,10.33
2019-05-17T04:35:43.301Z,9.93
2019-05-17T04:38:13.133Z,9.70
2019-05-17T04:40:43.345Z,9.97
2019-05-17T04:43:13.785Z,10.13
2019-05-17T04:45:43.542Z,8.03
2019-05-17T04:48:13.518Z,9.07
2019-05-17T04:50:43.170Z,8.83
2019-05-17T04:53:14.042Z,9.40
2019-05-17T04:55:43.709Z,9.17
2019-05-17T04:58:13.868Z,9.47
2019-05-17T05:00:45.503Z,10.60
2019-05-17T05:04:04.085Z,9.50
2019-05-17T05:05:53.564Z,9.43
2019-05-17T05:11:23.311Z,10.10
2019-05-17T05:13:54.073Z,9.07
2019-05-17T05:16:23.826Z,8.80
2019-05-17T05:18:53.461Z,9.10
2019-05-17T05:21:23.287Z,9.63
2019-05-17T05:23:54.053Z,9.80
2019-05-17T05:26:32.171Z,9.60
2019-05-17T05:29:02.287Z,10.30
2019-05-17T05:31:34.000Z,9.73
2019-05-17T05:34:06.466Z,10.00
2019-05-17T05:36:36.140Z,9.07
2019-05-17T05:39:07.602Z,10.97
2019-05-17T05:41:37.005Z,9.90
2019-05-17T05:44:06.816Z,10.17
2019-05-17T05:46:36.460Z,10.77
2019-05-17T05:49:06.390Z,11.87
2019-05-17T05:51:36.105Z,11.07
2019-05-17T05:54:05.909Z,11.57
2019-05-17T05:56:35.588Z,12.13
2019-05-17T05:59:05.339Z,10.47
2019-05-17T06:01:35.009Z,10.40
2019-05-17T06:04:04.715Z,9.90
2019-05-17T06:06:34.505Z,10.23
2019-05-17T06:09:06.320Z,9.60
2019-05-17T06:11:38.426Z,9.60
2019-05-17T06:14:07.970Z,9.73
2019-05-17T06:16:47.489Z,10.03
2019-05-17T06:19:22.349Z,10.17
2019-05-17T06:21:52.023Z,10.73
2019-05-17T06:24:22.576Z,10.17
2019-05-17T06:26:52.621Z,9.63
2019-05-17T06:29:22.329Z,9.87
2019-05-17T06:31:52.024Z,9.40
2019-05-17T06:34:22.735Z,9.03
2019-05-17T06:36:52.888Z,10.20
2019-05-17T06:42:45.540Z,10.27
2019-05-17T06:45:18.694Z,10.17
2019-05-17T06:47:48.383Z,9.47
2019-05-17T06:50:18.194Z,9.83
2019-05-17T06:52:47.904Z,9.90
2019-05-17T06:55:17.618Z,8.73
2019-05-17T06:57:48.300Z,9.43
2019-05-17T07:00:23.461Z,10.67
2019-05-17T07:02:49.927Z,9.87
2019-05-17T07:05:29.268Z,9.87
2019-05-17T07:08:00.324Z,9.60
2019-05-17T07:10:30.291Z,9.53
2019-05-17T07:16:19.783Z,7.73
2019-05-17T07:18:49.511Z,7.87
2019-05-17T07:21:20.536Z,8.43
2019-05-17T07:23:50.355Z,9.27
2019-05-17T07:26:19.966Z,8.47
2019-05-17T07:28:49.891Z,8.23
2019-05-17T07:31:22.665Z,8.90
2019-05-17T07:33:50.833Z,7.93
2019-05-17T07:36:20.368Z,7.63
2019-05-17T07:38:50.512Z,7.60
2019-05-17T07:41:20.490Z,7.57
2019-05-17T07:43:49.925Z,7.63
2019-05-17T07:46:20.640Z,8.37
2019-05-17T07:48:50.291Z,8.33
2019-05-17T07:51:19.860Z,8.77
2019-05-17T07:53:49.662Z,8.33
2019-05-17T07:56:19.955Z,8.47
2019-05-17T07:58:50.812Z,8.07
2019-05-17T08:01:20.619Z,8.33
2019-05-17T08:03:50.290Z,8.57
2019-05-17T08:06:21.050Z,7.30
2019-05-17T08:08:50.703Z,8.07
2019-05-17T08:11:20.284Z,8.17
2019-05-17T08:13:51.048Z,8.43
2019-05-17T08:16:20.652Z,8.40
2019-05-17T08:18:50.371Z,8.27
2019-05-17T08:21:20.011Z,9.03
2019-05-17T08:23:50.652Z,9.23
2019-05-17T08:26:20.568Z,8.17
2019-05-17T08:28:50.074Z,8.63
2019-05-17T08:31:20.288Z,8.73
2019-05-17T08:33:50.078Z,8.60
2019-05-17T08:36:20.152Z,9.63
2019-05-17T08:38:50.249Z,9.87
2019-05-17T08:41:20.812Z,10.13
2019-05-17T08:43:51.390Z,9.57
2019-05-17T08:46:21.159Z,10.43
2019-05-17T08:48:50.720Z,10.87
2019-05-17T08:51:21.395Z,10.63
2019-05-17T08:53:50.956Z,11.17
2019-05-17T08:56:20.676Z,11.63
2019-05-17T08:58:50.243Z,12.03
2019-05-17T09:01:19.923Z,11.50
2019-05-17T09:03:50.628Z,11.47
2019-05-17T09:06:20.391Z,12.27
2019-05-17T09:08:50.155Z,12.13
2019-05-17T09:11:19.808Z,12.63
2019-05-17T09:13:57.966Z,13.47
2019-05-17T09:16:21.679Z,13.17
2019-05-17T09:18:51.372Z,12.37
2019-05-17T09:21:21.964Z,13.37
2019-05-17T09:23:51.692Z,11.73
2019-05-17T09:26:21.272Z,13.40
2019-05-17T09:28:51.109Z,12.73
2019-05-17T09:31:21.815Z,12.10
2019-05-17T09:33:51.309Z,12.27
2019-05-17T09:36:20.826Z,12.63
2019-05-17T09:38:50.360Z,12.70
2019-05-17T09:41:20.252Z,12.57
2019-05-17T09:43:49.831Z,12.97
2019-05-17T09:46:19.780Z,12.73
2019-05-17T09:48:50.435Z,13.83
2019-05-17T09:51:20.330Z,13.57
2019-05-17T09:53:49.881Z,14.43
2019-05-17T09:56:20.593Z,13.13
2019-05-17T09:58:51.612Z,12.53
2019-05-17T10:01:21.197Z,12.80
2019-05-17T10:03:51.238Z,12.73
2019-05-17T10:06:21.364Z,12.03
2019-05-17T10:08:51.367Z,13.07
2019-05-17T10:11:21.309Z,12.13
2019-05-17T10:13:51.269Z,13.30
2019-05-17T10:16:21.296Z,13.60
2019-05-17T10:18:51.229Z,13.13
2019-05-17T10:21:27.470Z,10.93
2019-05-17T10:24:03.238Z,13.73
2019-05-17T10:26:33.252Z,13.00
2019-05-17T10:32:04.561Z,13.20
2019-05-17T10:34:35.694Z,13.03
2019-05-17T10:40:12.238Z,12.90
2019-05-17T10:42:45.122Z,12.43
2019-05-17T10:45:14.842Z,11.67
2019-05-17T10:47:44.469Z,12.07
2019-05-17T10:50:14.181Z,11.20
2019-05-17T10:52:48.370Z,13.40
2019-05-17T10:55:19.990Z,13.00
2019-05-17T10:57:53.167Z,11.80
2019-05-17T11:00:23.168Z,13.03
2019-05-17T11:02:52.690Z,12.93
2019-05-17T11:05:22.411Z,12.73
2019-05-17T11:07:53.775Z,12.60
2019-05-17T11:10:23.406Z,12.30
2019-05-17T11:12:52.917Z,11.10
2019-05-17T11:15:22.646Z,11.20
2019-05-17T11:17:52.367Z,10.50
2019-05-17T11:20:22.080Z,10.63
2019-05-17T11:22:51.664Z,11.70
2019-05-17T11:25:21.236Z,11.73
2019-05-17T11:27:50.700Z,11.90
2019-05-17T11:30:20.262Z,11.47
2019-05-17T11:32:49.827Z,12.70
2019-05-17T11:35:19.390Z,11.83
2019-05-17T11:37:48.960Z,10.67
2019-05-17T11:40:20.290Z,11.60
2019-05-17T11:42:49.925Z,11.17
2019-05-17T11:45:27.912Z,10.93
2019-05-17T11:47:50.845Z,10.50
2019-05-17T11:50:20.589Z,10.40
2019-05-17T11:52:50.096Z,9.83
2019-05-17T11:55:19.659Z,10.67
2019-05-17T11:57:49.233Z,9.90
2019-05-17T12:00:19.673Z,9.97
2019-05-17T12:02:49.402Z,9.87
2019-05-17T12:05:18.975Z,8.97
2019-05-17T12:07:48.517Z,8.97
2019-05-17T12:10:18.162Z,8.60
2019-05-17T12:12:47.795Z,8.53
2019-05-17T12:15:17.402Z,9.00
2019-05-17T12:17:46.907Z,9.40
2019-05-17T12:20:16.669Z,8.53
2019-05-17T12:22:46.316Z,8.10
2019-05-17T12:25:15.982Z,10.03
2019-05-17T12:27:45.483Z,8.27
2019-05-17T12:30:15.519Z,8.83
2019-05-17T12:32:45.077Z,7.70
2019-05-17T12:35:15.947Z,8.37
2019-05-17T12:37:45.525Z,8.30
2019-05-17T12:40:15.806Z,8.17
2019-05-17T12:42:45.377Z,8.83
2019-05-17T12:45:14.938Z,9.50
2019-05-17T12:47:44.500Z,9.87
2019-05-17T12:50:14.762Z,10.40
2019-05-17T12:52:44.259Z,9.90
2019-05-17T12:55:13.927Z,11.43
2019-05-17T12:57:43.392Z,9.40
2019-05-17T13:00:13.614Z,8.77
2019-05-17T13:02:43.182Z,9.07
2019-05-17T13:05:12.941Z,9.10
2019-05-17T13:07:42.602Z,8.83
2019-05-17T13:10:12.475Z,9.73
2019-05-17T13:12:41.931Z,7.90
2019-05-17T13:15:11.602Z,8.13
2019-05-17T13:17:42.170Z,8.13
2019-05-17T13:20:12.244Z,7.60
2019-05-17T13:22:41.754Z,8.00
2019-05-17T13:25:11.408Z,7.60
2019-05-17T13:27:40.900Z,7.20
2019-05-17T13:30:11.961Z,7.30
2019-05-17T13:32:41.528Z,7.63
2019-05-17T13:35:11.397Z,6.60
2019-05-17T13:37:40.890Z,6.60
2019-05-17T13:40:10.847Z,7.00
2019-05-17T13:42:40.475Z,7.10
2019-05-17T13:45:10.803Z,7.70
2019-05-17T13:47:40.292Z,6.43
2019-05-17T13:50:10.258Z,6.83
2019-05-17T13:52:39.741Z,7.13
2019-05-17T13:55:11.110Z,7.20
2019-05-17T13:57:40.671Z,6.27
2019-05-17T14:00:10.871Z,6.47
2019-05-17T14:02:40.431Z,6.33
2019-05-17T14:05:10.594Z,4.77
2019-05-17T14:07:40.148Z,5.63
2019-05-17T14:10:26.071Z,6.27
2019-05-17T14:12:40.958Z,4.83
2019-05-17T14:15:11.348Z,5.10
2019-05-17T14:17:40.841Z,5.23
2019-05-17T14:20:10.591Z,5.03
2019-05-17T14:22:40.167Z,5.67
2019-05-17T14:25:09.863Z,5.63
2019-05-17T14:27:39.363Z,4.87
2019-05-17T14:30:10.778Z,4.97
2019-05-17T14:32:40.466Z,5.43
2019-05-17T14:35:10.544Z,5.77
2019-05-17T14:37:40.241Z,4.63
2019-05-17T14:40:10.188Z,5.67
2019-05-17T14:42:39.854Z,5.73
2019-05-17T14:45:09.693Z,4.90
2019-05-17T14:47:39.389Z,6.13
2019-05-17T14:50:17.687Z,5.70
2019-05-17T14:52:59.598Z,5.33
2019-05-17T14:55:28.880Z,5.97
2019-05-17T14:57:58.728Z,6.13
2019-05-17T15:00:28.296Z,5.93
2019-05-17T15:02:57.925Z,6.57
2019-05-17T15:05:27.463Z,6.40
2019-05-17T15:07:57.007Z,7.10
2019-05-17T15:10:26.497Z,7.40
2019-05-17T15:12:56.217Z,7.33
2019-05-17T15:15:26.586Z,6.70
2019-05-17T15:17:57.625Z,7.47
2019-05-17T15:20:27.053Z,7.17
2019-05-17T15:22:56.535Z,6.30
2019-05-17T15:25:26.062Z,7.10
2019-05-17T15:27:55.622Z,7.60
2019-05-17T15:30:25.436Z,6.70
2019-05-17T15:32:55.168Z,6.50
2019-05-17T15:35:24.670Z,7.50
2019-05-17T15:37:54.182Z,6.67
2019-05-17T15:40:23.685Z,6.70
2019-05-17T15:42:53.313Z,7.30
2019-05-17T15:45:23.207Z,8.23
2019-05-17T15:47:52.947Z,8.20
2019-05-17T15:50:22.524Z,7.37
2019-05-17T15:52:52.023Z,7.37
2019-05-17T15:55:22.034Z,7.57
2019-05-17T15:57:53.346Z,7.87
2019-05-17T16:03:19.155Z,6.73
2019-05-17T16:05:48.824Z,7.77
2019-05-17T16:08:21.064Z,7.10
2019-05-17T16:10:50.630Z,7.20
2019-05-17T16:13:20.148Z,8.83
2019-05-17T16:15:49.650Z,8.30
2019-05-17T16:18:19.517Z,9.27
2019-05-17T16:20:50.669Z,9.43
2019-05-17T16:23:21.872Z,11.33
2019-05-17T16:25:53.141Z,12.70
2019-05-17T16:28:23.073Z,11.63
2019-05-17T16:30:52.648Z,11.37
2019-05-17T16:33:22.195Z,11.53
2019-05-17T16:35:51.755Z,11.10
2019-05-17T16:38:21.385Z,12.17
2019-05-17T16:40:51.004Z,9.83
2019-05-17T16:43:20.704Z,9.77
2019-05-17T16:45:50.299Z,9.90
2019-05-17T16:48:20.168Z,10.17
2019-05-17T16:50:50.581Z,10.70
2019-05-17T16:53:20.200Z,11.30
2019-05-17T16:55:49.779Z,11.00
2019-05-17T16:58:19.361Z,10.23
2019-05-17T17:00:49.130Z,10.47
2019-05-17T17:03:18.824Z,10.93
2019-05-17T17:05:49.465Z,9.77
2019-05-17T17:08:19.015Z,11.70
2019-05-17T17:10:48.659Z,11.53
2019-05-17T17:13:32.362Z,11.83
2019-05-17T17:15:50.616Z,10.70
2019-05-17T17:18:20.500Z,9.70
2019-05-17T17:20:50.144Z,9.97
2019-05-17T17:23:20.101Z,9.77
2019-05-17T17:25:53.603Z,10.37
2019-05-17T17:28:25.613Z,9.57
2019-05-17T17:30:56.507Z,8.63
2019-05-17T17:33:29.242Z,8.67
2019-05-17T17:35:58.911Z,7.47
2019-05-17T17:38:29.766Z,7.67
2019-05-17T17:41:04.683Z,8.13
2019-05-17T17:43:33.879Z,8.33
2019-05-17T17:46:03.637Z,7.80
2019-05-17T17:48:33.215Z,7.37
2019-05-17T17:51:02.933Z,7.10
2019-05-17T17:53:32.467Z,8.20
2019-05-17T17:56:13.548Z,8.43
2019-05-17T17:59:11.530Z,8.97
2019-05-17T18:01:25.867Z,8.80
2019-05-17T18:03:55.592Z,9.43
2019-05-17T18:06:34.376Z,9.67
2019-05-17T18:09:05.195Z,9.90
2019-05-17T18:11:36.646Z,11.50
2019-05-17T18:14:13.189Z,12.37
2019-05-17T18:16:37.919Z,11.43
2019-05-17T18:19:07.897Z,10.90
2019-05-17T18:21:37.504Z,11.17
2019-05-17T18:24:07.184Z,10.47
2019-05-17T18:26:40.001Z,10.40
2019-05-17T18:29:12.888Z,10.13
2019-05-17T18:34:55.584Z,10.90
2019-05-17T18:37:28.269Z,9.93
2019-05-17T18:39:57.862Z,10.30
2019-05-17T18:42:27.433Z,11.27
2019-05-17T18:44:57.038Z,11.50
2019-05-17T18:47:28.285Z,12.33
2019-05-17T18:49:57.940Z,12.77
2019-05-17T18:52:27.512Z,13.13
2019-05-17T18:54:58.133Z,11.70
2019-05-17T18:57:28.677Z,11.17
2019-05-17T18:59:59.926Z,11.40
2019-05-17T19:02:29.495Z,11.10
2019-05-17T19:05:00.744Z,10.67
2019-05-17T19:07:30.383Z,11.37
2019-05-17T19:10:00.885Z,10.50
2019-05-17T19:12:30.657Z,12.23
2019-05-17T19:15:01.712Z,12.50
2019-05-17T19:17:32.156Z,11.63
2019-05-17T19:20:01.902Z,11.63
2019-05-17T19:22:31.675Z,11.60
2019-05-17T19:25:03.019Z,10.87
2019-05-17T19:27:32.686Z,11.87
2019-05-17T19:30:04.661Z,11.37
2019-05-17T19:32:34.343Z,13.17
2019-05-17T19:35:06.747Z,12.03
2019-05-17T19:37:36.472Z,12.10
2019-05-17T19:40:09.558Z,12.53
2019-05-17T19:42:39.684Z,12.87
2019-05-17T19:45:10.634Z,12.07
2019-05-17T19:47:40.368Z,12.57
2019-05-17T19:50:10.157Z,11.80
2019-05-17T19:52:39.895Z,12.07
2019-05-17T19:55:09.942Z,13.63
2019-05-17T19:57:39.632Z,13.33
2019-05-17T20:00:12.080Z,13.83
2019-05-17T20:02:43.253Z,13.47
2019-05-17T20:05:13.022Z,13.57
2019-05-17T20:07:42.709Z,10.97
2019-05-17T20:10:12.579Z,11.30
2019-05-17T20:12:42.270Z,10.97
2019-05-17T20:15:18.265Z,11.17
2019-05-17T20:17:44.372Z,12.20
2019-05-17T20:20:15.053Z,14.17
2019-05-17T20:22:44.610Z,14.17
2019-05-17T20:25:15.160Z,15.20
2019-05-17T20:27:44.669Z,15.27
2019-05-17T20:30:16.919Z,14.33
2019-05-17T20:32:46.488Z,13.93
2019-05-17T20:35:18.030Z,14.97
2019-05-17T20:37:47.657Z,14.60
2019-05-17T20:40:17.551Z,14.63
2019-05-17T20:42:47.129Z,12.87
2019-05-17T20:45:30.571Z,13.43
2019-05-17T20:47:48.138Z,13.47
2019-05-17T20:50:17.931Z,12.57
2019-05-17T20:52:47.500Z,12.03
2019-05-17T20:55:17.640Z,11.70
2019-05-17T20:57:47.873Z,11.70
2019-05-17T21:00:18.131Z,10.37
2019-05-17T21:02:47.982Z,10.17
2019-05-17T21:05:18.831Z,11.60
2019-05-17T21:07:48.411Z,13.53
2019-05-17T21:10:18.910Z,12.33
2019-05-17T21:12:48.404Z,11.90
2019-05-17T21:15:17.973Z,12.13
2019-05-17T21:17:47.618Z,13.60
2019-05-17T21:20:18.092Z,13.77
2019-05-17T21:22:47.661Z,14.27
2019-05-17T21:25:17.729Z,12.93
2019-05-17T21:27:47.356Z,14.13
2019-05-17T21:30:17.030Z,13.47
2019-05-17T21:32:46.472Z,13.23
2019-05-17T21:35:16.247Z,11.53
2019-05-17T21:37:45.763Z,11.17
2019-05-17T21:40:15.614Z,10.77
2019-05-17T21:42:45.221Z,10.33
2019-05-17T21:45:14.796Z,10.23
2019-05-17T21:47:44.297Z,9.17
2019-05-17T21:50:14.081Z,8.90
2019-05-17T21:52:43.571Z,8.60
2019-05-17T21:55:13.155Z,8.30
2019-05-17T21:57:42.694Z,8.30
2019-05-17T22:00:15.554Z,8.33
2019-05-17T22:02:46.687Z,8.97
2019-05-17T22:05:16.100Z,8.17
2019-05-17T22:07:45.530Z,8.20
2019-05-17T22:10:18.319Z,8.73
2019-05-17T22:12:47.818Z,8.00
2019-05-17T22:15:17.453Z,8.70
2019-05-17T22:17:47.048Z,8.20
2019-05-17T22:20:16.536Z,7.80
2019-05-17T22:22:45.959Z,7.67
2019-05-17T22:25:15.479Z,7.50
2019-05-17T22:27:44.901Z,6.70
2019-05-17T22:30:14.460Z,8.13
2019-05-17T22:32:43.918Z,9.13
2019-05-17T22:35:13.477Z,9.60
2019-05-17T22:37:42.914Z,9.63
2019-05-17T22:40:12.824Z,9.60
2019-05-17T22:42:42.313Z,9.23
2019-05-17T22:45:11.877Z,10.03
2019-05-17T22:47:41.409Z,10.40
2019-05-17T22:50:11.097Z,9.70
2019-05-17T22:52:40.591Z,9.13
2019-05-17T22:55:10.457Z,8.97
2019-05-17T22:57:40.013Z,9.20
2019-05-17T23:00:10.115Z,9.60
2019-05-17T23:02:41.228Z,9.80
2019-05-17T23:05:10.887Z,9.77
2019-05-17T23:07:40.383Z,10.43
2019-05-17T23:10:10.344Z,13.20
2019-05-17T23:12:39.888Z,12.53
2019-05-17T23:15:09.577Z,14.83
2019-05-17T23:17:39.001Z,16.07
2019-05-17T23:20:09.073Z,14.63
2019-05-17T23:22:38.503Z,13.43
2019-05-17T23:25:08.848Z,13.97
2019-05-17T23:27:38.419Z,15.50
2019-05-17T23:30:08.693Z,16.47
2019-05-17T23:32:38.543Z,17.53
2019-05-17T23:35:08.266Z,15.87
2019-05-17T23:37:37.696Z,13.77
2019-05-17T23:40:07.261Z,16.17
2019-05-17T23:42:36.905Z,16.53
2019-05-17T23:45:08.271Z,16.10
2019-05-17T23:47:37.729Z,15.80
2019-05-17T23:50:09.224Z,16.93
2019-05-17T23:52:38.798Z,16.80
2019-05-17T23:55:08.366Z,18.27
2019-05-17T23:57:37.867Z,18.23
